sensor_id;sensor_type;location;lat;lon;timestamp;P1;durP1;ratioP1;P2;durP2;ratioP2
47778;SDS011;33538;48.432;11.350;2022-10-16T00:00:38;8.52;;;1.45;;
47778;SDS011;33538;48.432;11.350;2022-10-16T00:03:06;1.58;;;1.30;;
47778;SDS011;33538;48.432;11.350;2022-10-16T00:05:37;1.33;;;1.23;;
47778;SDS011;33538;48.432;11.350;2022-10-16T00:08:05;3.03;;;1.20;;
47778;SDS011;33538;48.432;11.350;2022-10-16T00:10:33;1.88;;;1.35;;
47778;SDS011;33538;48.432;11.350;2022-10-16T00:13:00;1.58;;;1.23;;
47778;SDS011;33538;48.432;11.350;2022-10-16T00:15:27;7.65;;;1.42;;
47778;SDS011;33538;48.432;11.350;2022-10-16T00:17:55;3.30;;;1.10;;
47778;SDS011;33538;48.432;11.350;2022-10-16T00:20:21;1.65;;;1.15;;
47778;SDS011;33538;48.432;11.350;2022-10-16T00:22:48;4.75;;;1.13;;
47778;SDS011;33538;48.432;11.350;2022-10-16T00:25:15;3.35;;;1.20;;
47778;SDS011;33538;48.432;11.350;2022-10-16T00:27:42;1.10;;;1.00;;
47778;SDS011;33538;48.432;11.350;2022-10-16T00:30:09;1.15;;;1.10;;
47778;SDS011;33538;48.432;11.350;2022-10-16T00:32:36;1.58;;;1.25;;
47778;SDS011;33538;48.432;11.350;2022-10-16T00:35:04;2.50;;;1.40;;
47778;SDS011;33538;48.432;11.350;2022-10-16T00:37:31;1.27;;;1.10;;
47778;SDS011;33538;48.432;11.350;2022-10-16T00:39:58;1.20;;;1.00;;
47778;SDS011;33538;48.432;11.350;2022-10-16T00:42:25;4.43;;;1.25;;
47778;SDS011;33538;48.432;11.350;2022-10-16T00:44:53;1.30;;;1.20;;
47778;SDS011;33538;48.432;11.350;2022-10-16T00:47:22;4.47;;;2.33;;
47778;SDS011;33538;48.432;11.350;2022-10-16T00:49:54;3.17;;;1.65;;
47778;SDS011;33538;48.432;11.350;2022-10-16T00:52:26;5.10;;;1.30;;
47778;SDS011;33538;48.432;11.350;2022-10-16T00:54:53;2.75;;;1.20;;
47778;SDS011;33538;48.432;11.350;2022-10-16T00:57:21;2.75;;;1.35;;
47778;SDS011;33538;48.432;11.350;2022-10-16T00:59:48;2.17;;;1.55;;
47778;SDS011;33538;48.432;11.350;2022-10-16T01:02:15;2.08;;;1.50;;
47778;SDS011;33538;48.432;11.350;2022-10-16T01:04:43;2.63;;;1.35;;
47778;SDS011;33538;48.432;11.350;2022-10-16T01:07:12;1.77;;;1.48;;
47778;SDS011;33538;48.432;11.350;2022-10-16T01:09:51;1.65;;;1.35;;
47778;SDS011;33538;48.432;11.350;2022-10-16T01:12:26;3.40;;;1.83;;
47778;SDS011;33538;48.432;11.350;2022-10-16T01:15:05;1.88;;;1.20;;
47778;SDS011;33538;48.432;11.350;2022-10-16T01:17:38;4.50;;;1.40;;
47778;SDS011;33538;48.432;11.350;2022-10-16T01:20:12;4.67;;;1.70;;
47778;SDS011;33538;48.432;11.350;2022-10-16T01:22:47;2.80;;;1.55;;
47778;SDS011;33538;48.432;11.350;2022-10-16T01:25:25;1.73;;;1.27;;
47778;SDS011;33538;48.432;11.350;2022-10-16T01:28:04;1.90;;;1.13;;
47778;SDS011;33538;48.432;11.350;2022-10-16T01:30:34;2.15;;;1.10;;
47778;SDS011;33538;48.432;11.350;2022-10-16T01:33:04;1.83;;;1.40;;
47778;SDS011;33538;48.432;11.350;2022-10-16T01:35:38;2.15;;;1.40;;
47778;SDS011;33538;48.432;11.350;2022-10-16T01:38:10;1.55;;;1.15;;
47778;SDS011;33538;48.432;11.350;2022-10-16T01:40:43;2.63;;;1.25;;
47778;SDS011;33538;48.432;11.350;2022-10-16T01:43:15;3.72;;;1.42;;
47778;SDS011;33538;48.432;11.350;2022-10-16T01:45:44;1.50;;;1.20;;
47778;SDS011;33538;48.432;11.350;2022-10-16T01:48:12;1.52;;;1.25;;
47778;SDS011;33538;48.432;11.350;2022-10-16T01:50:43;1.33;;;1.20;;
47778;SDS011;33538;48.432;11.350;2022-10-16T01:53:23;3.83;;;1.55;;
47778;SDS011;33538;48.432;11.350;2022-10-16T01:55:52;2.55;;;1.77;;
47778;SDS011;33538;48.432;11.350;2022-10-16T01:58:22;3.97;;;1.67;;
47778;SDS011;33538;48.432;11.350;2022-10-16T02:00:51;2.03;;;1.27;;
47778;SDS011;33538;48.432;11.350;2022-10-16T02:03:19;2.42;;;1.63;;
47778;SDS011;33538;48.432;11.350;2022-10-16T02:05:47;3.42;;;1.40;;
47778;SDS011;33538;48.432;11.350;2022-10-16T02:08:17;3.50;;;1.30;;
47778;SDS011;33538;48.432;11.350;2022-10-16T02:10:44;4.45;;;1.52;;
47778;SDS011;33538;48.432;11.350;2022-10-16T02:13:12;3.42;;;1.65;;
47778;SDS011;33538;48.432;11.350;2022-10-16T02:15:44;2.88;;;1.50;;
47778;SDS011;33538;48.432;11.350;2022-10-16T02:18:11;1.88;;;1.38;;
47778;SDS011;33538;48.432;11.350;2022-10-16T02:20:40;1.50;;;1.33;;
47778;SDS011;33538;48.432;11.350;2022-10-16T02:23:15;2.45;;;1.40;;
47778;SDS011;33538;48.432;11.350;2022-10-16T02:25:45;2.10;;;1.52;;
47778;SDS011;33538;48.432;11.350;2022-10-16T02:28:15;5.28;;;1.40;;
47778;SDS011;33538;48.432;11.350;2022-10-16T02:30:46;1.77;;;1.40;;
47778;SDS011;33538;48.432;11.350;2022-10-16T02:33:17;4.85;;;1.65;;
47778;SDS011;33538;48.432;11.350;2022-10-16T02:35:46;1.63;;;1.35;;
47778;SDS011;33538;48.432;11.350;2022-10-16T02:38:15;1.90;;;1.38;;
47778;SDS011;33538;48.432;11.350;2022-10-16T02:40:43;5.18;;;1.40;;
47778;SDS011;33538;48.432;11.350;2022-10-16T02:43:10;2.90;;;1.50;;
47778;SDS011;33538;48.432;11.350;2022-10-16T02:45:38;2.70;;;1.55;;
47778;SDS011;33538;48.432;11.350;2022-10-16T02:48:06;1.30;;;1.20;;
47778;SDS011;33538;48.432;11.350;2022-10-16T02:50:33;2.35;;;1.50;;
47778;SDS011;33538;48.432;11.350;2022-10-16T02:53:00;1.67;;;1.48;;
47778;SDS011;33538;48.432;11.350;2022-10-16T02:55:27;3.33;;;1.38;;
47778;SDS011;33538;48.432;11.350;2022-10-16T02:57:55;1.88;;;1.30;;
47778;SDS011;33538;48.432;11.350;2022-10-16T03:00:21;1.35;;;1.20;;
47778;SDS011;33538;48.432;11.350;2022-10-16T03:02:48;1.50;;;1.17;;
47778;SDS011;33538;48.432;11.350;2022-10-16T03:05:17;1.73;;;1.15;;
47778;SDS011;33538;48.432;11.350;2022-10-16T03:07:44;1.65;;;1.33;;
47778;SDS011;33538;48.432;11.350;2022-10-16T03:10:10;2.67;;;1.48;;
47778;SDS011;33538;48.432;11.350;2022-10-16T03:12:37;2.08;;;1.05;;
47778;SDS011;33538;48.432;11.350;2022-10-16T03:15:04;1.85;;;1.50;;
47778;SDS011;33538;48.432;11.350;2022-10-16T03:17:32;2.35;;;1.52;;
47778;SDS011;33538;48.432;11.350;2022-10-16T03:19:59;1.30;;;1.20;;
47778;SDS011;33538;48.432;11.350;2022-10-16T03:22:27;2.85;;;1.50;;
47778;SDS011;33538;48.432;11.350;2022-10-16T03:24:53;3.08;;;2.10;;
47778;SDS011;33538;48.432;11.350;2022-10-16T03:27:20;2.08;;;1.40;;
47778;SDS011;33538;48.432;11.350;2022-10-16T03:29:47;1.80;;;1.38;;
47778;SDS011;33538;48.432;11.350;2022-10-16T03:32:14;2.78;;;1.40;;
47778;SDS011;33538;48.432;11.350;2022-10-16T03:34:41;1.42;;;1.08;;
47778;SDS011;33538;48.432;11.350;2022-10-16T03:37:08;2.67;;;1.92;;
47778;SDS011;33538;48.432;11.350;2022-10-16T03:39:36;2.53;;;1.55;;
47778;SDS011;33538;48.432;11.350;2022-10-16T03:42:03;1.98;;;1.25;;
47778;SDS011;33538;48.432;11.350;2022-10-16T03:44:30;2.53;;;1.80;;
47778;SDS011;33538;48.432;11.350;2022-10-16T03:46:57;1.50;;;1.27;;
47778;SDS011;33538;48.432;11.350;2022-10-16T03:49:23;1.40;;;1.30;;
47778;SDS011;33538;48.432;11.350;2022-10-16T03:51:50;2.45;;;1.42;;
47778;SDS011;33538;48.432;11.350;2022-10-16T03:54:17;2.03;;;1.40;;
47778;SDS011;33538;48.432;11.350;2022-10-16T03:56:45;2.05;;;1.23;;
47778;SDS011;33538;48.432;11.350;2022-10-16T03:59:12;1.65;;;1.27;;
47778;SDS011;33538;48.432;11.350;2022-10-16T04:01:39;2.05;;;1.38;;
47778;SDS011;33538;48.432;11.350;2022-10-16T04:04:05;3.67;;;1.33;;
47778;SDS011;33538;48.432;11.350;2022-10-16T04:06:32;3.05;;;1.70;;
47778;SDS011;33538;48.432;11.350;2022-10-16T04:08:59;2.63;;;1.30;;
47778;SDS011;33538;48.432;11.350;2022-10-16T04:11:26;3.58;;;1.50;;
47778;SDS011;33538;48.432;11.350;2022-10-16T04:13:54;2.72;;;1.30;;
47778;SDS011;33538;48.432;11.350;2022-10-16T04:16:21;2.67;;;1.52;;
47778;SDS011;33538;48.432;11.350;2022-10-16T04:18:48;2.05;;;1.17;;
47778;SDS011;33538;48.432;11.350;2022-10-16T04:21:14;2.63;;;1.40;;
47778;SDS011;33538;48.432;11.350;2022-10-16T04:23:41;1.70;;;1.38;;
47778;SDS011;33538;48.432;11.350;2022-10-16T04:26:08;1.25;;;1.00;;
47778;SDS011;33538;48.432;11.350;2022-10-16T04:28:35;2.33;;;1.40;;
47778;SDS011;33538;48.432;11.350;2022-10-16T04:31:04;1.45;;;1.33;;
47778;SDS011;33538;48.432;11.350;2022-10-16T04:33:32;1.85;;;1.38;;
47778;SDS011;33538;48.432;11.350;2022-10-16T04:35:59;2.28;;;1.60;;
47778;SDS011;33538;48.432;11.350;2022-10-16T04:38:26;1.88;;;1.35;;
47778;SDS011;33538;48.432;11.350;2022-10-16T04:40:53;1.40;;;1.23;;
47778;SDS011;33538;48.432;11.350;2022-10-16T04:43:20;1.65;;;1.30;;
47778;SDS011;33538;48.432;11.350;2022-10-16T04:45:48;1.63;;;1.20;;
47778;SDS011;33538;48.432;11.350;2022-10-16T04:48:16;3.50;;;1.40;;
47778;SDS011;33538;48.432;11.350;2022-10-16T04:50:42;1.92;;;1.10;;
47778;SDS011;33538;48.432;11.350;2022-10-16T04:53:09;2.85;;;1.52;;
47778;SDS011;33538;48.432;11.350;2022-10-16T04:55:36;2.15;;;1.35;;
47778;SDS011;33538;48.432;11.350;2022-10-16T04:58:03;2.28;;;1.40;;
47778;SDS011;33538;48.432;11.350;2022-10-16T05:00:30;2.35;;;1.52;;
47778;SDS011;33538;48.432;11.350;2022-10-16T05:02:57;3.03;;;1.85;;
47778;SDS011;33538;48.432;11.350;2022-10-16T05:05:25;4.57;;;1.90;;
47778;SDS011;33538;48.432;11.350;2022-10-16T05:07:53;2.00;;;1.40;;
47778;SDS011;33538;48.432;11.350;2022-10-16T05:10:20;2.35;;;1.63;;
47778;SDS011;33538;48.432;11.350;2022-10-16T05:12:46;2.42;;;1.45;;
47778;SDS011;33538;48.432;11.350;2022-10-16T05:15:13;2.15;;;1.73;;
47778;SDS011;33538;48.432;11.350;2022-10-16T05:17:40;2.53;;;1.15;;
47778;SDS011;33538;48.432;11.350;2022-10-16T05:20:10;2.05;;;1.40;;
47778;SDS011;33538;48.432;11.350;2022-10-16T05:22:38;1.95;;;1.17;;
47778;SDS011;33538;48.432;11.350;2022-10-16T05:25:05;1.15;;;0.95;;
47778;SDS011;33538;48.432;11.350;2022-10-16T05:27:32;1.92;;;1.15;;
47778;SDS011;33538;48.432;11.350;2022-10-16T05:29:59;1.20;;;1.10;;
47778;SDS011;33538;48.432;11.350;2022-10-16T05:32:26;2.40;;;1.40;;
47778;SDS011;33538;48.432;11.350;2022-10-16T05:34:52;1.60;;;1.27;;
47778;SDS011;33538;48.432;11.350;2022-10-16T05:37:19;2.15;;;1.55;;
47778;SDS011;33538;48.432;11.350;2022-10-16T05:39:47;1.50;;;1.20;;
47778;SDS011;33538;48.432;11.350;2022-10-16T05:42:14;2.95;;;1.67;;
47778;SDS011;33538;48.432;11.350;2022-10-16T05:44:41;2.10;;;1.52;;
47778;SDS011;33538;48.432;11.350;2022-10-16T05:47:08;4.55;;;2.30;;
47778;SDS011;33538;48.432;11.350;2022-10-16T05:49:34;2.85;;;1.95;;
47778;SDS011;33538;48.432;11.350;2022-10-16T05:52:06;2.75;;;2.05;;
47778;SDS011;33538;48.432;11.350;2022-10-16T05:54:33;2.78;;;1.98;;
47778;SDS011;33538;48.432;11.350;2022-10-16T05:57:01;5.10;;;1.80;;
47778;SDS011;33538;48.432;11.350;2022-10-16T05:59:28;2.30;;;1.50;;
47778;SDS011;33538;48.432;11.350;2022-10-16T06:01:54;2.45;;;1.73;;
47778;SDS011;33538;48.432;11.350;2022-10-16T06:04:21;2.47;;;1.40;;
47778;SDS011;33538;48.432;11.350;2022-10-16T06:06:48;3.33;;;2.10;;
47778;SDS011;33538;48.432;11.350;2022-10-16T06:09:15;2.53;;;1.83;;
47778;SDS011;33538;48.432;11.350;2022-10-16T06:11:41;2.65;;;1.70;;
47778;SDS011;33538;48.432;11.350;2022-10-16T06:14:09;2.35;;;1.83;;
47778;SDS011;33538;48.432;11.350;2022-10-16T06:16:36;3.35;;;1.63;;
47778;SDS011;33538;48.432;11.350;2022-10-16T06:19:03;4.45;;;2.03;;
47778;SDS011;33538;48.432;11.350;2022-10-16T06:21:31;3.22;;;1.63;;
47778;SDS011;33538;48.432;11.350;2022-10-16T06:23:58;3.92;;;1.90;;
47778;SDS011;33538;48.432;11.350;2022-10-16T06:26:25;3.17;;;1.65;;
47778;SDS011;33538;48.432;11.350;2022-10-16T06:28:53;2.60;;;1.60;;
47778;SDS011;33538;48.432;11.350;2022-10-16T06:31:22;6.38;;;1.98;;
47778;SDS011;33538;48.432;11.350;2022-10-16T06:33:50;2.90;;;1.95;;
47778;SDS011;33538;48.432;11.350;2022-10-16T06:36:17;2.53;;;1.77;;
47778;SDS011;33538;48.432;11.350;2022-10-16T06:38:44;2.38;;;1.63;;
47778;SDS011;33538;48.432;11.350;2022-10-16T06:41:11;2.47;;;1.80;;
47778;SDS011;33538;48.432;11.350;2022-10-16T06:43:39;2.85;;;1.77;;
47778;SDS011;33538;48.432;11.350;2022-10-16T06:46:07;3.28;;;1.63;;
47778;SDS011;33538;48.432;11.350;2022-10-16T06:48:37;1.98;;;1.50;;
47778;SDS011;33538;48.432;11.350;2022-10-16T06:51:05;2.42;;;1.50;;
47778;SDS011;33538;48.432;11.350;2022-10-16T06:53:35;2.17;;;1.50;;
47778;SDS011;33538;48.432;11.350;2022-10-16T06:56:14;2.53;;;1.45;;
47778;SDS011;33538;48.432;11.350;2022-10-16T06:58:43;2.63;;;1.77;;
47778;SDS011;33538;48.432;11.350;2022-10-16T07:01:10;2.60;;;1.60;;
47778;SDS011;33538;48.432;11.350;2022-10-16T07:03:40;3.78;;;1.80;;
47778;SDS011;33538;48.432;11.350;2022-10-16T07:06:09;2.10;;;1.73;;
47778;SDS011;33538;48.432;11.350;2022-10-16T07:08:37;1.95;;;1.40;;
47778;SDS011;33538;48.432;11.350;2022-10-16T07:11:06;2.58;;;1.88;;
47778;SDS011;33538;48.432;11.350;2022-10-16T07:13:34;2.45;;;1.80;;
47778;SDS011;33538;48.432;11.350;2022-10-16T07:16:03;2.20;;;1.55;;
47778;SDS011;33538;48.432;11.350;2022-10-16T07:18:31;3.50;;;1.85;;
47778;SDS011;33538;48.432;11.350;2022-10-16T07:21:04;2.72;;;1.55;;
47778;SDS011;33538;48.432;11.350;2022-10-16T07:23:31;2.10;;;1.50;;
47778;SDS011;33538;48.432;11.350;2022-10-16T07:25:58;2.83;;;1.63;;
47778;SDS011;33538;48.432;11.350;2022-10-16T07:28:25;2.15;;;1.70;;
47778;SDS011;33538;48.432;11.350;2022-10-16T07:30:52;1.88;;;1.23;;
47778;SDS011;33538;48.432;11.350;2022-10-16T07:33:18;2.08;;;1.50;;
47778;SDS011;33538;48.432;11.350;2022-10-16T07:35:49;2.47;;;1.60;;
47778;SDS011;33538;48.432;11.350;2022-10-16T07:38:18;1.83;;;1.35;;
47778;SDS011;33538;48.432;11.350;2022-10-16T07:40:45;1.70;;;1.42;;
47778;SDS011;33538;48.432;11.350;2022-10-16T07:43:12;2.50;;;1.30;;
47778;SDS011;33538;48.432;11.350;2022-10-16T07:45:46;1.60;;;1.27;;
47778;SDS011;33538;48.432;11.350;2022-10-16T07:48:13;2.88;;;1.20;;
47778;SDS011;33538;48.432;11.350;2022-10-16T07:50:40;1.33;;;1.13;;
47778;SDS011;33538;48.432;11.350;2022-10-16T07:53:07;3.47;;;2.00;;
47778;SDS011;33538;48.432;11.350;2022-10-16T07:55:36;2.13;;;1.63;;
47778;SDS011;33538;48.432;11.350;2022-10-16T07:58:02;1.92;;;1.60;;
47778;SDS011;33538;48.432;11.350;2022-10-16T08:00:29;1.80;;;1.35;;
47778;SDS011;33538;48.432;11.350;2022-10-16T08:02:56;1.83;;;1.40;;
47778;SDS011;33538;48.432;11.350;2022-10-16T08:05:23;2.78;;;1.70;;
47778;SDS011;33538;48.432;11.350;2022-10-16T08:07:50;1.70;;;1.40;;
47778;SDS011;33538;48.432;11.350;2022-10-16T08:10:18;1.88;;;1.40;;
47778;SDS011;33538;48.432;11.350;2022-10-16T08:12:47;2.47;;;1.50;;
47778;SDS011;33538;48.432;11.350;2022-10-16T08:15:14;1.70;;;1.40;;
47778;SDS011;33538;48.432;11.350;2022-10-16T08:17:40;2.40;;;1.33;;
47778;SDS011;33538;48.432;11.350;2022-10-16T08:20:08;1.80;;;1.40;;
47778;SDS011;33538;48.432;11.350;2022-10-16T08:22:35;2.28;;;1.30;;
47778;SDS011;33538;48.432;11.350;2022-10-16T08:25:02;2.35;;;1.50;;
47778;SDS011;33538;48.432;11.350;2022-10-16T08:27:30;2.25;;;1.23;;
47778;SDS011;33538;48.432;11.350;2022-10-16T08:29:59;1.65;;;1.40;;
47778;SDS011;33538;48.432;11.350;2022-10-16T08:32:25;2.33;;;1.50;;
47778;SDS011;33538;48.432;11.350;2022-10-16T08:34:53;1.85;;;1.55;;
47778;SDS011;33538;48.432;11.350;2022-10-16T08:37:19;1.67;;;1.30;;
47778;SDS011;33538;48.432;11.350;2022-10-16T08:39:46;1.88;;;1.45;;
47778;SDS011;33538;48.432;11.350;2022-10-16T08:42:16;1.40;;;1.30;;
47778;SDS011;33538;48.432;11.350;2022-10-16T08:44:59;2.00;;;1.38;;
47778;SDS011;33538;48.432;11.350;2022-10-16T08:47:36;2.08;;;1.40;;
47778;SDS011;33538;48.432;11.350;2022-10-16T08:50:12;2.80;;;1.80;;
47778;SDS011;33538;48.432;11.350;2022-10-16T08:52:41;4.60;;;1.35;;
47778;SDS011;33538;48.432;11.350;2022-10-16T08:55:15;4.93;;;1.45;;
47778;SDS011;33538;48.432;11.350;2022-10-16T08:57:51;1.98;;;1.60;;
47778;SDS011;33538;48.432;11.350;2022-10-16T09:00:19;2.13;;;1.40;;
47778;SDS011;33538;48.432;11.350;2022-10-16T09:02:49;3.10;;;1.70;;
47778;SDS011;33538;48.432;11.350;2022-10-16T09:05:23;7.57;;;1.98;;
47778;SDS011;33538;48.432;11.350;2022-10-16T09:08:06;2.53;;;1.40;;
47778;SDS011;33538;48.432;11.350;2022-10-16T09:10:46;2.60;;;1.30;;
47778;SDS011;33538;48.432;11.350;2022-10-16T09:13:22;4.53;;;1.90;;
47778;SDS011;33538;48.432;11.350;2022-10-16T09:15:55;1.80;;;1.40;;
47778;SDS011;33538;48.432;11.350;2022-10-16T09:18:30;2.38;;;1.55;;
47778;SDS011;33538;48.432;11.350;2022-10-16T09:21:02;3.15;;;1.60;;
47778;SDS011;33538;48.432;11.350;2022-10-16T09:23:36;2.90;;;1.63;;
47778;SDS011;33538;48.432;11.350;2022-10-16T09:26:03;2.97;;;1.42;;
47778;SDS011;33538;48.432;11.350;2022-10-16T09:28:35;2.97;;;1.40;;
47778;SDS011;33538;48.432;11.350;2022-10-16T09:31:03;2.03;;;1.40;;
47778;SDS011;33538;48.432;11.350;2022-10-16T09:33:33;2.28;;;1.48;;
47778;SDS011;33538;48.432;11.350;2022-10-16T09:36:03;6.40;;;2.25;;
47778;SDS011;33538;48.432;11.350;2022-10-16T09:38:32;1.58;;;1.45;;
47778;SDS011;33538;48.432;11.350;2022-10-16T09:41:01;2.00;;;1.60;;
47778;SDS011;33538;48.432;11.350;2022-10-16T09:43:41;2.22;;;1.50;;
47778;SDS011;33538;48.432;11.350;2022-10-16T09:46:21;1.90;;;1.30;;
47778;SDS011;33538;48.432;11.350;2022-10-16T09:48:51;1.67;;;1.13;;
47778;SDS011;33538;48.432;11.350;2022-10-16T09:51:22;4.15;;;1.40;;
47778;SDS011;33538;48.432;11.350;2022-10-16T09:53:53;2.13;;;1.50;;
47778;SDS011;33538;48.432;11.350;2022-10-16T09:56:22;2.85;;;1.35;;
47778;SDS011;33538;48.432;11.350;2022-10-16T09:58:51;1.67;;;1.45;;
47778;SDS011;33538;48.432;11.350;2022-10-16T10:01:18;2.40;;;1.35;;
47778;SDS011;33538;48.432;11.350;2022-10-16T10:03:48;3.85;;;1.45;;
47778;SDS011;33538;48.432;11.350;2022-10-16T10:06:16;1.98;;;1.50;;
47778;SDS011;33538;48.432;11.350;2022-10-16T10:08:54;3.83;;;1.55;;
47778;SDS011;33538;48.432;11.350;2022-10-16T10:11:36;0.95;;;0.80;;
47778;SDS011;33538;48.432;11.350;2022-10-16T10:14:09;1.73;;;1.15;;
47778;SDS011;33538;48.432;11.350;2022-10-16T10:16:50;1.40;;;1.10;;
47778;SDS011;33538;48.432;11.350;2022-10-16T10:19:18;1.33;;;1.08;;
47778;SDS011;33538;48.432;11.350;2022-10-16T10:21:47;2.38;;;0.93;;
47778;SDS011;33538;48.432;11.350;2022-10-16T10:24:15;1.95;;;1.05;;
47778;SDS011;33538;48.432;11.350;2022-10-16T10:26:45;1.67;;;1.13;;
47778;SDS011;33538;48.432;11.350;2022-10-16T10:29:19;0.85;;;0.80;;
47778;SDS011;33538;48.432;11.350;2022-10-16T10:31:56;0.93;;;0.77;;
47778;SDS011;33538;48.432;11.350;2022-10-16T10:34:35;1.02;;;0.73;;
47778;SDS011;33538;48.432;11.350;2022-10-16T10:37:24;1.25;;;0.98;;
47778;SDS011;33538;48.432;11.350;2022-10-16T10:40:15;1.35;;;0.85;;
47778;SDS011;33538;48.432;11.350;2022-10-16T10:42:50;0.75;;;0.75;;
47778;SDS011;33538;48.432;11.350;2022-10-16T10:45:25;1.10;;;0.90;;
47778;SDS011;33538;48.432;11.350;2022-10-16T10:48:02;1.33;;;0.70;;
47778;SDS011;33538;48.432;11.350;2022-10-16T10:50:39;1.23;;;0.90;;
47778;SDS011;33538;48.432;11.350;2022-10-16T10:53:11;1.00;;;0.70;;
47778;SDS011;33538;48.432;11.350;2022-10-16T10:56:00;0.70;;;0.68;;
47778;SDS011;33538;48.432;11.350;2022-10-16T10:58:43;1.17;;;0.90;;
47778;SDS011;33538;48.432;11.350;2022-10-16T11:01:34;1.50;;;0.80;;
47778;SDS011;33538;48.432;11.350;2022-10-16T11:04:19;0.98;;;0.70;;
47778;SDS011;33538;48.432;11.350;2022-10-16T11:07:04;0.70;;;0.70;;
47778;SDS011;33538;48.432;11.350;2022-10-16T11:09:32;1.27;;;0.80;;
47778;SDS011;33538;48.432;11.350;2022-10-16T11:12:05;0.88;;;0.75;;
47778;SDS011;33538;48.432;11.350;2022-10-16T11:14:46;0.93;;;0.80;;
47778;SDS011;33538;48.432;11.350;2022-10-16T11:17:17;0.57;;;0.57;;
47778;SDS011;33538;48.432;11.350;2022-10-16T11:19:51;1.27;;;0.65;;
47778;SDS011;33538;48.432;11.350;2022-10-16T11:22:23;0.88;;;0.80;;
47778;SDS011;33538;48.432;11.350;2022-10-16T11:24:55;1.55;;;0.65;;
47778;SDS011;33538;48.432;11.350;2022-10-16T11:27:33;0.90;;;0.75;;
47778;SDS011;33538;48.432;11.350;2022-10-16T11:30:04;0.60;;;0.60;;
47778;SDS011;33538;48.432;11.350;2022-10-16T11:32:41;1.40;;;0.50;;
47778;SDS011;33538;48.432;11.350;2022-10-16T11:35:19;0.63;;;0.63;;
47778;SDS011;33538;48.432;11.350;2022-10-16T11:37:49;0.80;;;0.70;;
47778;SDS011;33538;48.432;11.350;2022-10-16T11:40:19;1.15;;;0.73;;
47778;SDS011;33538;48.432;11.350;2022-10-16T11:42:51;0.60;;;0.60;;
47778;SDS011;33538;48.432;11.350;2022-10-16T11:45:26;1.90;;;1.27;;
47778;SDS011;33538;48.432;11.350;2022-10-16T11:48:00;2.92;;;1.10;;
47778;SDS011;33538;48.432;11.350;2022-10-16T11:50:36;0.75;;;0.65;;
47778;SDS011;33538;48.432;11.350;2022-10-16T11:53:10;2.45;;;1.38;;
47778;SDS011;33538;48.432;11.350;2022-10-16T11:55:44;3.53;;;0.63;;
47778;SDS011;33538;48.432;11.350;2022-10-16T11:58:15;0.90;;;0.77;;
47778;SDS011;33538;48.432;11.350;2022-10-16T12:00:51;0.60;;;0.60;;
47778;SDS011;33538;48.432;11.350;2022-10-16T12:03:26;0.90;;;0.80;;
47778;SDS011;33538;48.432;11.350;2022-10-16T12:06:05;0.82;;;0.70;;
47778;SDS011;33538;48.432;11.350;2022-10-16T12:08:39;0.82;;;0.52;;
47778;SDS011;33538;48.432;11.350;2022-10-16T12:11:08;0.77;;;0.63;;
47778;SDS011;33538;48.432;11.350;2022-10-16T12:13:46;3.72;;;0.93;;
47778;SDS011;33538;48.432;11.350;2022-10-16T12:16:20;3.28;;;0.75;;
47778;SDS011;33538;48.432;11.350;2022-10-16T12:18:49;0.63;;;0.60;;
47778;SDS011;33538;48.432;11.350;2022-10-16T12:21:30;3.60;;;0.70;;
47778;SDS011;33538;48.432;11.350;2022-10-16T12:23:58;1.23;;;0.90;;
47778;SDS011;33538;48.432;11.350;2022-10-16T12:26:26;1.20;;;0.77;;
47778;SDS011;33538;48.432;11.350;2022-10-16T12:28:55;0.73;;;0.60;;
47778;SDS011;33538;48.432;11.350;2022-10-16T12:31:42;1.63;;;0.80;;
47778;SDS011;33538;48.432;11.350;2022-10-16T12:34:21;1.88;;;1.40;;
47778;SDS011;33538;48.432;11.350;2022-10-16T12:36:53;1.00;;;0.77;;
47778;SDS011;33538;48.432;11.350;2022-10-16T12:39:22;1.25;;;0.68;;
47778;SDS011;33538;48.432;11.350;2022-10-16T12:42:00;1.02;;;0.80;;
47778;SDS011;33538;48.432;11.350;2022-10-16T12:44:32;0.52;;;0.52;;
47778;SDS011;33538;48.432;11.350;2022-10-16T12:47:00;0.95;;;0.75;;
47778;SDS011;33538;48.432;11.350;2022-10-16T12:49:31;0.45;;;0.45;;
47778;SDS011;33538;48.432;11.350;2022-10-16T12:52:04;0.57;;;0.50;;
47778;SDS011;33538;48.432;11.350;2022-10-16T12:54:31;0.85;;;0.82;;
47778;SDS011;33538;48.432;11.350;2022-10-16T12:57:09;6.18;;;0.85;;
47778;SDS011;33538;48.432;11.350;2022-10-16T12:59:51;0.85;;;0.75;;
47778;SDS011;33538;48.432;11.350;2022-10-16T13:02:38;0.70;;;0.70;;
47778;SDS011;33538;48.432;11.350;2022-10-16T13:05:18;0.70;;;0.60;;
47778;SDS011;33538;48.432;11.350;2022-10-16T13:07:59;2.38;;;0.60;;
47778;SDS011;33538;48.432;11.350;2022-10-16T13:10:39;2.22;;;0.70;;
47778;SDS011;33538;48.432;11.350;2022-10-16T13:13:23;1.13;;;0.80;;
47778;SDS011;33538;48.432;11.350;2022-10-16T13:16:12;0.50;;;0.50;;
47778;SDS011;33538;48.432;11.350;2022-10-16T13:18:50;0.57;;;0.57;;
47778;SDS011;33538;48.432;11.350;2022-10-16T13:21:32;0.70;;;0.52;;
47778;SDS011;33538;48.432;11.350;2022-10-16T13:24:09;0.65;;;0.60;;
47778;SDS011;33538;48.432;11.350;2022-10-16T13:26:44;1.70;;;0.70;;
47778;SDS011;33538;48.432;11.350;2022-10-16T13:29:15;0.77;;;0.77;;
47778;SDS011;33538;48.432;11.350;2022-10-16T13:31:42;0.60;;;0.60;;
47778;SDS011;33538;48.432;11.350;2022-10-16T13:34:11;0.57;;;0.50;;
47778;SDS011;33538;48.432;11.350;2022-10-16T13:36:45;2.72;;;0.82;;
47778;SDS011;33538;48.432;11.350;2022-10-16T13:39:15;4.85;;;1.08;;
47778;SDS011;33538;48.432;11.350;2022-10-16T13:41:47;0.80;;;0.70;;
47778;SDS011;33538;48.432;11.350;2022-10-16T13:44:35;0.55;;;0.55;;
47778;SDS011;33538;48.432;11.350;2022-10-16T13:47:05;0.70;;;0.60;;
47778;SDS011;33538;48.432;11.350;2022-10-16T13:49:40;1.17;;;0.82;;
47778;SDS011;33538;48.432;11.350;2022-10-16T13:52:15;0.57;;;0.50;;
47778;SDS011;33538;48.432;11.350;2022-10-16T13:54:45;0.77;;;0.70;;
47778;SDS011;33538;48.432;11.350;2022-10-16T13:57:13;0.57;;;0.57;;
47778;SDS011;33538;48.432;11.350;2022-10-16T13:59:53;1.25;;;0.60;;
47778;SDS011;33538;48.432;11.350;2022-10-16T14:02:21;0.60;;;0.60;;
47778;SDS011;33538;48.432;11.350;2022-10-16T14:04:52;5.32;;;0.80;;
47778;SDS011;33538;48.432;11.350;2022-10-16T14:07:20;0.47;;;0.45;;
47778;SDS011;33538;48.432;11.350;2022-10-16T14:09:52;0.88;;;0.60;;
47778;SDS011;33538;48.432;11.350;2022-10-16T14:12:20;0.60;;;0.60;;
47778;SDS011;33538;48.432;11.350;2022-10-16T14:14:53;1.00;;;0.60;;
47778;SDS011;33538;48.432;11.350;2022-10-16T14:17:22;0.75;;;0.50;;
47778;SDS011;33538;48.432;11.350;2022-10-16T14:19:51;0.82;;;0.63;;
47778;SDS011;33538;48.432;11.350;2022-10-16T14:22:28;0.52;;;0.52;;
47778;SDS011;33538;48.432;11.350;2022-10-16T14:24:58;1.08;;;0.50;;
47778;SDS011;33538;48.432;11.350;2022-10-16T14:27:27;0.65;;;0.50;;
47778;SDS011;33538;48.432;11.350;2022-10-16T14:30:08;1.40;;;0.77;;
47778;SDS011;33538;48.432;11.350;2022-10-16T14:32:40;0.40;;;0.40;;
47778;SDS011;33538;48.432;11.350;2022-10-16T14:35:21;11.13;;;1.17;;
47778;SDS011;33538;48.432;11.350;2022-10-16T14:37:51;0.57;;;0.57;;
47778;SDS011;33538;48.432;11.350;2022-10-16T14:40:20;0.93;;;0.60;;
47778;SDS011;33538;48.432;11.350;2022-10-16T14:42:49;1.00;;;0.60;;
47778;SDS011;33538;48.432;11.350;2022-10-16T14:45:18;1.60;;;0.70;;
47778;SDS011;33538;48.432;11.350;2022-10-16T14:47:48;0.93;;;0.82;;
47778;SDS011;33538;48.432;11.350;2022-10-16T14:50:16;0.57;;;0.38;;
47778;SDS011;33538;48.432;11.350;2022-10-16T14:52:43;1.67;;;0.82;;